Time;durP1;ratioP1;P1;durP2;ratioP2;P2;SDS_P1;SDS_P2;PMS_P1;PMS_P2;Temp;Humidity;BMP_temperature;BMP_pressure;BME280_temperature;BME280_humidity;BME280_pressure;Samples;Min_cycle;Max_cycle;Signal;HPM_P1;HPM_P2
2022/01/30 00:02:02;;;;;;;21.70;9.18;;;;;;;-6.16;100.00;95427.56;5047959;28;20075;-49
2022/01/30 00:04:29;;;;;;;10.40;5.88;;;;;;;-6.28;100.00;95433.53;5044372;28;20526;-48
2022/01/30 00:06:55;;;;;;;21.40;9.18;;;;;;;-6.29;100.00;95437.00;5046447;28;20052;-46
2022/01/30 00:09:23;;;;;;;21.30;8.65;;;;;;;-6.42;100.00;95435.34;5046490;28;20070;-49
2022/01/30 00:11:55;;;;;;;14.77;6.68;;;;;;;-6.55;100.00;95427.03;5051957;28;20045;-49
2022/01/30 00:14:24;;;;;;;14.70;7.45;;;;;;;-6.60;100.00;95424.81;5046316;28;20049;-50
2022/01/30 00:16:58;;;;;;;20.23;9.90;;;;;;;-6.69;100.00;95422.16;5044832;28;20053;-47
2022/01/30 00:19:34;;;;;;;16.27;8.75;;;;;;;-6.76;100.00;95419.25;5046253;28;20515;-46
2022/01/30 00:22:15;;;;;;;11.25;7.07;;;;;;;-6.85;100.00;95420.72;5046042;28;20495;-47
2022/01/30 00:27:17;;;;;;;11.38;6.88;;;;;;;-7.05;100.00;95403.59;5045561;28;20064;-48
2022/01/30 00:29:44;;;;;;;15.30;6.88;;;;;;;-7.14;100.00;95400.78;5044676;28;20041;-47
2022/01/30 00:32:13;;;;;;;7.60;4.60;;;;;;;-7.14;100.00;95395.72;5047470;28;20421;-47
2022/01/30 00:34:59;;;;;;;13.70;8.93;;;;;;;-7.07;100.00;95400.38;5057471;28;20053;-48
2022/01/30 00:37:26;;;;;;;10.18;5.45;;;;;;;-7.09;100.00;95387.00;5047934;28;20749;-48
2022/01/30 00:39:53;;;;;;;11.13;7.85;;;;;;;-7.11;100.00;95380.31;5047403;28;20102;-51
2022/01/30 00:42:22;;;;;;;18.98;10.90;;;;;;;-7.08;100.00;95378.50;5046107;28;20041;-47
2022/01/30 00:44:49;;;;;;;35.55;14.02;;;;;;;-7.06;100.00;95381.72;5048912;28;20071;-48
2022/01/30 00:47:16;;;;;;;19.83;10.60;;;;;;;-7.05;100.00;95373.22;5045984;28;20542;-48
2022/01/30 00:49:43;;;;;;;11.85;7.57;;;;;;;-7.03;100.00;95376.44;5049109;28;20102;-47
2022/01/30 00:52:10;;;;;;;38.90;19.17;;;;;;;-6.87;100.00;95382.03;5045728;28;20084;-48
2022/01/30 00:54:38;;;;;;;27.33;15.82;;;;;;;-6.77;100.00;95372.84;5044845;28;20053;-47
2022/01/30 00:57:05;;;;;;;14.32;8.93;;;;;;;-6.73;100.00;95376.78;5051012;28;20466;-49
2022/01/30 00:59:32;;;;;;;11.70;5.85;;;;;;;-6.63;100.00;95368.50;5050609;28;20045;-49
2022/01/30 01:01:58;;;;;;;12.35;7.40;;;;;;;-6.60;100.00;95370.81;5047219;28;20053;-46
2022/01/30 01:04:26;;;;;;;10.80;6.05;;;;;;;-6.52;100.00;95360.91;5044529;28;20045;-50
2022/01/30 01:06:53;;;;;;;12.77;6.90;;;;;;;-6.52;100.00;95358.38;5050870;28;20375;-48
2022/01/30 01:09:23;;;;;;;12.70;6.50;;;;;;;-6.55;100.00;95356.09;5045289;28;20042;-47
2022/01/30 01:25:20;;;;;;;18.27;9.73;;;;;;;-6.88;100.00;95339.06;5058827;28;20040;-46
2022/01/30 01:27:48;;;;;;;17.17;9.43;;;;;;;-6.98;100.00;95329.63;5048406;28;20052;-47
2022/01/30 01:30:15;;;;;;;19.75;7.55;;;;;;;-7.02;100.00;95327.41;5044595;28;20048;-47
2022/01/30 01:32:42;;;;;;;12.63;8.55;;;;;;;-7.08;100.00;95327.84;5046348;28;20120;-49
2022/01/30 01:35:09;;;;;;;16.90;9.05;;;;;;;-7.17;100.00;95314.94;5046294;28;20068;-46
2022/01/30 01:37:36;;;;;;;20.13;7.70;;;;;;;-7.28;100.00;95311.56;5048168;28;20045;-47
2022/01/30 01:40:04;;;;;;;11.85;7.20;;;;;;;-7.34;100.00;95290.84;5045442;28;20056;-46
2022/01/30 01:42:34;;;;;;;18.90;9.80;;;;;;;-7.24;100.00;95298.56;5044964;28;20059;-48
2022/01/30 01:45:02;;;;;;;11.95;6.85;;;;;;;-7.17;100.00;95293.88;5045402;28;20040;-46
2022/01/30 01:47:32;;;;;;;18.80;10.32;;;;;;;-7.18;100.00;95293.06;5050526;28;20045;-47
2022/01/30 01:50:00;;;;;;;19.77;8.52;;;;;;;-7.16;100.00;95291.22;5045153;28;20576;-52
2022/01/30 01:52:27;;;;;;;22.60;8.07;;;;;;;-7.21;100.00;95285.69;5044312;28;20908;-52
2022/01/30 01:54:57;;;;;;;14.43;6.68;;;;;;;-7.18;100.00;95282.94;5045179;28;20041;-49
2022/01/30 01:57:27;;;;;;;13.63;8.55;;;;;;;-7.24;100.00;95285.91;5057494;28;20064;-50
2022/01/30 02:00:08;;;;;;;29.42;14.32;;;;;;;-7.26;100.00;95289.47;5043673;28;20048;-49
2022/01/30 02:02:41;;;;;;;27.52;13.00;;;;;;;-7.28;100.00;95276.94;5043706;28;20521;-47
2022/01/30 02:05:10;;;;;;;19.75;11.32;;;;;;;-7.40;100.00;95262.63;5044657;28;20057;-47
2022/01/30 02:10:16;;;;;;;15.88;8.20;;;;;;;-7.41;100.00;95250.91;5059812;28;20076;-48
2022/01/30 02:12:49;;;;;;;11.65;8.35;;;;;;;-7.41;100.00;95256.75;5059965;28;20055;-47
2022/01/30 02:23:58;;;;;;;9.13;5.65;;;;;;;-7.60;100.00;95252.19;5059606;28;20044;-48
2022/01/30 02:26:24;;;;;;;9.48;5.40;;;;;;;-7.73;100.00;95251.47;5058311;28;20044;-48
2022/01/30 02:28:53;;;;;;;10.13;6.43;;;;;;;-7.83;100.00;95246.25;5048025;28;20044;-47
2022/01/30 02:31:22;;;;;;;10.50;6.85;;;;;;;-7.85;100.00;95252.31;5043497;28;20045;-47
2022/01/30 02:33:49;;;;;;;13.90;7.00;;;;;;;-7.91;100.00;95259.41;5046895;28;20063;-48
2022/01/30 02:36:16;;;;;;;16.80;6.45;;;;;;;-7.96;100.00;95238.72;5051282;28;20053;-47
2022/01/30 02:38:43;;;;;;;15.50;6.22;;;;;;;-7.94;100.00;95229.31;5044782;28;20533;-47
2022/01/30 02:41:10;;;;;;;14.45;5.32;;;;;;;-7.96;100.00;95231.16;5048189;28;20537;-53
2022/01/30 02:43:56;;;;;;;10.02;6.20;;;;;;;-7.94;100.00;95229.31;5060656;28;20083;-48
2022/01/30 02:46:30;;;;;;;14.20;6.90;;;;;;;-7.93;100.00;95220.78;5041384;28;20099;-50
2022/01/30 02:49:11;;;;;;;11.70;5.88;;;;;;;-7.97;100.00;95216.88;5050531;28;20541;-47
2022/01/30 02:51:46;;;;;;;7.70;5.57;;;;;;;-7.99;100.00;95223.78;5045949;28;20494;-48
2022/01/30 02:54:14;;;;;;;15.90;6.00;;;;;;;-8.06;100.00;95207.41;5042953;28;20128;-47
2022/01/30 02:56:42;;;;;;;9.55;5.47;;;;;;;-8.07;100.00;95218.44;5044084;28;20073;-50
2022/01/30 02:59:11;;;;;;;7.68;4.95;;;;;;;-8.12;100.00;95207.84;5047998;28;20041;-49
2022/01/30 03:01:38;;;;;;;13.18;7.45;;;;;;;-8.11;100.00;95211.97;5046506;28;20072;-47
2022/01/30 03:04:05;;;;;;;9.50;5.10;;;;;;;-8.08;100.00;95211.78;5047299;28;20037;-47
2022/01/30 03:06:32;;;;;;;15.13;7.68;;;;;;;-8.10;100.00;95203.50;5045607;28;20068;-47
2022/01/30 03:09:01;;;;;;;10.38;6.80;;;;;;;-8.11;100.00;95201.88;5047619;28;20037;-47
2022/01/30 03:11:28;;;;;;;13.35;7.72;;;;;;;-8.06;100.00;95194.78;5047825;28;20505;-47
2022/01/30 03:13:55;;;;;;;9.95;5.95;;;;;;;-8.07;100.00;95195.69;5047632;28;20104;-48
2022/01/30 03:16:22;;;;;;;15.68;6.45;;;;;;;-8.06;100.00;95182.13;5047813;28;20045;-46
2022/01/30 03:18:52;;;;;;;9.65;6.68;;;;;;;-8.05;100.00;95185.47;5040774;28;20414;-46
2022/01/30 03:21:19;;;;;;;12.02;6.07;;;;;;;-8.02;100.00;95186.06;5063624;28;20040;-48
2022/01/30 03:23:46;;;;;;;14.68;7.47;;;;;;;-7.99;100.00;95185.84;5060649;28;20136;-48
2022/01/30 03:26:14;;;;;;;11.65;7.68;;;;;;;-7.91;100.00;95188.63;5047669;28;20052;-46
2022/01/30 03:29:07;;;;;;;10.35;6.25;;;;;;;-7.94;100.00;95163.56;5040547;28;20063;-47
2022/01/30 03:31:42;;;;;;;6.70;5.60;;;;;;;-7.84;100.00;95173.03;5047540;28;20045;-47
2022/01/30 03:34:11;;;;;;;16.80;6.68;;;;;;;-7.66;100.00;95175.97;5047928;28;20051;-47
2022/01/30 03:36:49;;;;;;;8.90;5.72;;;;;;;-7.59;100.00;95188.03;5050569;28;20509;-47
2022/01/30 03:39:18;;;;;;;10.77;6.18;;;;;;;-7.54;100.00;95196.13;5055872;28;20652;-47
2022/01/30 03:41:46;;;;;;;11.70;7.00;;;;;;;-7.52;100.00;95201.88;5062759;28;20048;-48
2022/01/30 03:44:16;;;;;;;13.48;8.80;;;;;;;-7.57;100.00;95201.38;5048814;28;20094;-47
2022/01/30 03:46:43;;;;;;;14.07;7.28;;;;;;;-7.64;100.00;95205.28;5050439;28;20543;-50
2022/01/30 03:49:23;;;;;;;15.98;6.82;;;;;;;-7.69;100.00;95207.31;5067761;28;20072;-47
2022/01/30 03:51:51;;;;;;;18.77;7.32;;;;;;;-7.79;100.00;95188.69;5046646;28;20046;-46
2022/01/30 03:54:23;;;;;;;13.70;7.15;;;;;;;-7.82;100.00;95192.22;5050276;28;20492;-51
2022/01/30 03:56:51;;;;;;;11.32;6.13;;;;;;;-7.85;100.00;95194.97;5061724;28;20041;-48
2022/01/30 03:59:22;;;;;;;9.45;4.93;;;;;;;-7.84;100.00;95183.16;5061084;28;20068;-49
2022/01/30 04:01:49;;;;;;;13.77;8.32;;;;;;;-7.83;100.00;95190.63;5046225;28;20048;-49
2022/01/30 04:04:16;;;;;;;9.82;5.53;;;;;;;-7.82;100.00;95176.25;5044817;28;20052;-48
2022/01/30 04:06:44;;;;;;;9.40;3.97;;;;;;;-7.84;100.00;95178.09;5063007;28;20054;-47
2022/01/30 04:09:46;;;;;;;10.45;6.32;;;;;;;-7.94;100.00;95176.22;5022643;28;20497;-46
2022/01/30 04:12:18;;;;;;;8.98;5.80;;;;;;;-7.94;100.00;95178.75;5038269;28;20139;-47
2022/01/30 04:15:04;;;;;;;13.70;6.50;;;;;;;-7.94;100.00;95181.28;5049785;28;20111;-47
2022/01/30 04:17:50;;;;;;;12.38;5.68;;;;;;;-7.97;100.00;95185.75;5046975;28;20109;-47
2022/01/30 04:20:43;;;;;;;10.55;6.53;;;;;;;-7.91;100.00;95178.50;5046787;28;20090;-47
2022/01/30 04:23:23;;;;;;;8.52;5.43;;;;;;;-7.92;100.00;95166.81;5045264;28;20460;-48
2022/01/30 04:25:59;;;;;;;11.75;5.95;;;;;;;-7.93;100.00;95160.13;5046750;28;20067;-51
2022/01/30 04:28:45;;;;;;;10.25;8.05;;;;;;;-7.93;100.00;95154.25;5047680;28;20134;-48
2022/01/30 04:31:15;;;;;;;9.88;5.68;;;;;;;-7.99;100.00;95150.47;5045004;28;20056;-46
2022/01/30 04:34:00;;;;;;;11.30;4.75;;;;;;;-7.96;100.00;95135.06;5045791;28;20064;-47
2022/01/30 04:36:56;;;;;;;4.75;3.80;;;;;;;-7.94;100.00;95120.59;5049268;28;20489;-48
2022/01/30 05:09:51;;;;;;;9.23;4.80;;;;;;;-7.85;100.00;95100.59;5049200;28;20047;-47
2022/01/30 05:12:51;;;;;;;17.20;5.07;;;;;;;-7.84;100.00;95097.16;5043723;28;20059;-48
2022/01/30 05:15:22;;;;;;;12.00;5.35;;;;;;;-7.86;100.00;95078.78;5045625;28;20045;-47
2022/01/30 05:18:10;;;;;;;13.15;6.25;;;;;;;-7.88;100.00;95072.09;5013814;28;20505;-47
2022/01/30 05:21:00;;;;;;;11.13;6.10;;;;;;;-7.74;100.00;95062.69;5025171;28;20064;-47
2022/01/30 05:23:59;;;;;;;15.13;7.13;;;;;;;-7.68;100.00;95062.25;5012095;28;20060;-48
2022/01/30 05:26:44;;;;;;;9.10;6.43;;;;;;;-7.66;100.00;95055.34;5046171;28;20048;-48
2022/01/30 05:29:40;;;;;;;22.88;10.55;;;;;;;-7.62;100.00;95046.59;4989935;28;20097;-46
2022/01/30 05:32:16;;;;;;;13.30;7.05;;;;;;;-7.50;100.00;95038.09;5044858;28;20311;-48
2022/01/30 05:35:03;;;;;;;9.70;5.68;;;;;;;-7.50;100.00;95043.16;5048908;28;20048;-48
2022/01/30 05:37:43;;;;;;;17.60;6.55;;;;;;;-7.43;100.00;95055.38;5049193;28;20041;-48
2022/01/30 05:40:32;;;;;;;20.00;6.60;;;;;;;-7.43;100.00;95040.19;5043482;28;20139;-49
2022/01/30 05:43:11;;;;;;;17.95;9.65;;;;;;;-7.25;100.00;95043.84;5044621;28;20048;-49
2022/01/30 05:45:55;;;;;;;15.98;9.15;;;;;;;-7.15;100.00;95049.84;5047028;28;20503;-47
2022/01/30 05:48:49;;;;;;;11.80;8.27;;;;;;;-7.07;100.00;95081.34;5039023;28;20094;-47
2022/01/30 05:51:27;;;;;;;19.73;8.88;;;;;;;-7.00;100.00;95082.50;5049074;28;20045;-47
2022/01/30 05:54:02;;;;;;;17.80;8.65;;;;;;;-6.93;100.00;95083.63;5043415;28;20061;-47
2022/01/30 05:56:35;;;;;;;15.70;9.88;;;;;;;-6.78;100.00;95076.59;5043574;28;20103;-47
2022/01/30 05:59:11;;;;;;;18.95;10.82;;;;;;;-6.65;100.00;95076.44;5043019;28;20033;-48
2022/01/30 06:01:56;;;;;;;17.60;10.85;;;;;;;-6.55;100.00;95067.19;5050268;28;20114;-49
2022/01/30 06:04:23;;;;;;;24.45;12.57;;;;;;;-6.44;100.00;95064.63;5043985;28;20060;-48
2022/01/30 06:06:52;;;;;;;21.70;10.27;;;;;;;-6.39;100.00;95062.53;5046542;28;20049;-48
2022/01/30 06:09:19;;;;;;;18.83;9.50;;;;;;;-6.18;100.00;95064.28;5045452;28;20875;-50
2022/01/30 06:11:50;;;;;;;20.88;10.98;;;;;;;-6.07;100.00;95056.59;5047246;28;22867;-49
2022/01/30 06:14:20;;;;;;;17.33;8.57;;;;;;;-6.03;100.00;95057.16;5051519;28;20128;-50
2022/01/30 06:16:49;;;;;;;28.20;13.38;;;;;;;-5.91;100.00;95060.44;5058819;28;20472;-47
2022/01/30 06:19:35;;;;;;;20.98;12.68;;;;;;;-5.80;100.00;95053.56;5048256;28;20470;-47
2022/01/30 06:22:25;;;;;;;18.70;10.85;;;;;;;-5.70;100.00;95043.47;5036869;28;20044;-49
2022/01/30 06:25:11;;;;;;;76.07;30.33;;;;;;;-5.62;100.00;95036.03;5044331;28;20114;-49
2022/01/30 06:27:57;;;;;;;67.40;31.42;;;;;;;-5.57;100.00;95033.91;5044810;28;20110;-51
2022/01/30 06:31:02;;;;;;;;;;;;;;;-5.47;100.00;95053.47;5024001;28;20103;-49
2022/01/30 06:33:42;;;;;;;10.52;7.35;;;;;;;-5.45;100.00;95054.13;5029211;28;19944;-47
2022/01/30 06:36:28;;;;;;;25.00;12.85;;;;;;;-5.38;100.00;95037.47;5039887;28;20435;-52
2022/01/30 06:39:07;;;;;;;39.28;21.35;;;;;;;-5.25;100.00;95038.03;5043509;28;20548;-49
2022/01/30 06:41:47;;;;;;;33.35;14.60;;;;;;;-5.10;100.00;95040.22;5042535;28;20064;-51
2022/01/30 06:44:33;;;;;;;22.58;10.55;;;;;;;-4.95;100.00;95048.28;5044365;28;20069;-49
2022/01/30 06:47:18;;;;;;;21.67;10.75;;;;;;;-4.82;100.00;95036.94;5049825;28;20561;-47
2022/01/30 06:49:48;;;;;;;18.65;7.78;;;;;;;-4.77;100.00;95056.06;5044451;28;20128;-49
2022/01/30 06:52:50;;;;;;;30.88;14.75;;;;;;;-4.66;100.00;95072.03;4997927;28;20100;-48
2022/01/30 06:55:52;;;;;;;13.02;7.50;;;;;;;-4.56;100.00;95061.84;5020823;28;20056;-47
2022/01/30 06:58:37;;;;;;;14.48;7.15;;;;;;;-4.49;100.00;95024.00;5041445;28;20060;-49
2022/01/30 07:01:42;;;;;;;14.50;7.88;;;;;;;-4.43;100.00;95029.38;5019637;28;20048;-48
2022/01/30 07:04:28;;;;;;;23.88;13.77;;;;;;;-4.33;100.00;95028.56;5020874;28;20086;-47
2022/01/30 07:07:15;;;;;;;26.65;14.45;;;;;;;-4.30;100.00;95028.31;5036166;28;20059;-49
2022/01/30 07:09:42;;;;;;;13.60;8.25;;;;;;;-4.13;100.00;95025.06;5043596;28;20120;-48
2022/01/30 07:12:09;;;;;;;23.50;9.43;;;;;;;-3.95;100.00;95016.75;5042510;28;20073;-48
2022/01/30 07:14:36;;;;;;;16.40;8.25;;;;;;;-3.81;100.00;95018.06;5045355;28;20052;-51
2022/01/30 07:17:03;;;;;;;10.43;6.93;;;;;;;-3.82;100.00;95001.97;5042574;28;20426;-47
2022/01/30 07:19:30;;;;;;;18.40;11.02;;;;;;;-3.57;100.00;95020.13;5044669;28;20509;-47
2022/01/30 07:21:57;;;;;;;54.17;23.67;;;;;;;-3.48;100.00;95025.19;5045595;28;20051;-49
2022/01/30 07:24:24;;;;;;;40.03;15.60;;;;;;;-3.39;100.00;95018.44;5042600;28;22330;-50
2022/01/30 07:26:50;;;;;;;31.30;13.68;;;;;;;-3.24;100.00;95021.34;5043840;28;20394;-47
2022/01/30 07:29:17;;;;;;;13.57;7.18;;;;;;;-3.17;100.00;95019.03;5042599;28;20408;-48
2022/01/30 07:31:45;;;;;;;25.10;13.30;;;;;;;-3.12;100.00;95029.59;5042544;28;20052;-48
2022/01/30 07:34:12;;;;;;;17.88;7.90;;;;;;;-3.03;100.00;95021.09;5045236;28;20049;-47
2022/01/30 07:36:39;;;;;;;23.58;12.90;;;;;;;-2.91;100.00;95029.38;5043668;28;20434;-47
2022/01/30 07:39:08;;;;;;;26.60;13.10;;;;;;;-2.76;100.00;95024.56;5042104;28;20502;-48
2022/01/30 07:41:35;;;;;;;31.60;17.90;;;;;;;-2.60;100.00;95032.38;5043385;28;20135;-48
2022/01/30 07:44:03;;;;;;;32.45;15.23;;;;;;;-2.52;100.00;95029.94;5042741;28;20507;-48
2022/01/30 07:46:31;;;;;;;26.90;15.32;;;;;;;-2.41;100.00;95022.97;5047006;28;20479;-49
2022/01/30 07:48:59;;;;;;;32.80;12.93;;;;;;;-2.33;100.00;95021.31;5047262;28;20059;-51
2022/01/30 07:51:25;;;;;;;17.80;9.27;;;;;;;-2.21;100.00;95029.56;5047053;28;20045;-48
2022/01/30 07:53:52;;;;;;;21.05;8.45;;;;;;;-2.17;100.00;95020.66;5046961;28;20494;-47
2022/01/30 07:56:19;;;;;;;16.00;9.82;;;;;;;-2.07;100.00;95027.41;5050724;28;20043;-47
2022/01/30 07:58:46;;;;;;;19.08;11.45;;;;;;;-2.02;100.00;95017.56;5048643;28;20045;-46
2022/01/30 08:01:13;;;;;;;23.75;11.05;;;;;;;-1.96;99.36;95009.34;5046597;28;20041;-47
2022/01/30 08:03:40;;;;;;;28.20;12.15;;;;;;;-2.10;97.61;95025.97;5048295;28;20807;-50
2022/01/30 08:06:07;;;;;;;18.27;10.60;;;;;;;-2.12;97.77;95028.66;5048571;28;20045;-47
2022/01/30 08:08:34;;;;;;;18.77;9.50;;;;;;;-2.02;97.59;95027.78;5048378;28;20095;-48
2022/01/30 08:11:01;;;;;;;22.50;11.23;;;;;;;-2.01;97.84;95019.19;5045978;28;20138;-47
2022/01/30 08:13:28;;;;;;;22.63;12.75;;;;;;;-2.00;97.78;95000.34;5045194;28;20040;-47
2022/01/30 08:15:55;;;;;;;24.67;13.63;;;;;;;-1.97;97.18;95000.06;5045000;28;20403;-49
2022/01/30 08:18:22;;;;;;;22.83;11.07;;;;;;;-1.95;97.86;94998.16;5047533;28;20074;-48
2022/01/30 08:20:49;;;;;;;16.05;9.73;;;;;;;-1.87;98.05;94984.63;5043082;28;20666;-48
2022/01/30 08:23:18;;;;;;;22.13;11.27;;;;;;;-1.77;97.87;94996.34;5047599;28;20040;-47
2022/01/30 08:25:45;;;;;;;20.20;8.98;;;;;;;-1.76;97.95;94997.97;5045288;28;20065;-48
2022/01/30 08:28:12;;;;;;;20.83;9.00;;;;;;;-1.68;97.91;94998.97;5046622;28;20051;-47
2022/01/30 08:30:39;;;;;;;19.25;9.93;;;;;;;-1.61;97.27;94985.44;5046228;28;20052;-46
2022/01/30 08:33:06;;;;;;;19.67;8.35;;;;;;;-1.45;97.16;94994.94;5045796;28;20037;-46
2022/01/30 08:35:33;;;;;;;13.70;7.38;;;;;;;-1.33;95.24;94999.78;5046060;28;20052;-47
2022/01/30 08:38:00;;;;;;;16.77;8.45;;;;;;;-1.32;95.48;94993.72;5044973;28;20055;-46
2022/01/30 08:40:27;;;;;;;24.67;9.23;;;;;;;-1.21;95.29;95001.09;5043569;28;20037;-47
2022/01/30 08:42:55;;;;;;;18.63;9.20;;;;;;;-1.15;95.28;94995.41;5046415;28;20037;-49
2022/01/30 08:45:22;;;;;;;16.23;9.05;;;;;;;-1.11;94.31;95016.34;5044349;28;20045;-46
2022/01/30 08:47:51;;;;;;;19.92;9.80;;;;;;;-0.99;94.91;95000.56;5045961;28;20068;-47
2022/01/30 08:50:20;;;;;;;16.45;9.80;;;;;;;-0.91;94.52;95004.09;5046996;28;20040;-46
2022/01/30 08:52:48;;;;;;;20.45;11.43;;;;;;;-0.82;93.68;95000.59;5047224;28;20068;-46
2022/01/30 08:55:17;;;;;;;22.05;9.73;;;;;;;-0.72;93.02;95005.56;5046377;28;20040;-49
2022/01/30 08:57:44;;;;;;;18.90;11.50;;;;;;;-0.46;92.59;95001.13;5045965;28;20047;-46
2022/01/30 09:00:14;;;;;;;22.35;9.35;;;;;;;-0.21;92.19;94999.41;5046710;28;20505;-46
2022/01/30 09:02:41;;;;;;;25.20;10.00;;;;;;;0.03;90.54;95000.34;5044479;28;20506;-46
2022/01/30 09:05:11;;;;;;;23.90;11.02;;;;;;;0.09;88.07;95015.09;5046515;28;20445;-52
2022/01/30 09:07:39;;;;;;;23.30;11.85;;;;;;;0.11;86.06;95013.16;5048341;28;20041;-50
2022/01/30 09:10:09;;;;;;;26.52;13.07;;;;;;;0.18;86.31;95014.13;5045962;28;20037;-46
2022/01/30 09:12:37;;;;;;;26.00;12.65;;;;;;;0.26;85.62;94999.69;5046937;28;20052;-46
2022/01/30 09:15:06;;;;;;;28.85;13.38;;;;;;;0.47;85.38;94997.41;5046425;28;20044;-47
2022/01/30 09:17:33;;;;;;;27.02;12.80;;;;;;;0.63;83.64;94995.75;5046838;28;20049;-47
2022/01/30 09:20:02;;;;;;;14.52;7.68;;;;;;;0.70;78.20;95001.81;5044408;28;20037;-49
2022/01/30 09:22:29;;;;;;;8.27;3.67;;;;;;;0.78;74.74;94983.06;5044688;28;20045;-50
2022/01/30 09:24:56;;;;;;;10.80;4.68;;;;;;;0.93;73.19;94996.78;5047013;28;20469;-50
2022/01/30 09:27:23;;;;;;;10.65;4.82;;;;;;;1.03;73.54;95002.50;5045958;28;20049;-46
2022/01/30 09:29:50;;;;;;;10.35;4.35;;;;;;;1.21;74.22;94981.75;5042881;28;20709;-47
2022/01/30 09:32:17;;;;;;;10.68;4.45;;;;;;;1.23;70.54;94992.63;5044435;28;20048;-49
2022/01/30 09:34:44;;;;;;;6.90;4.07;;;;;;;1.31;70.10;94973.81;5044266;28;20554;-49
2022/01/30 09:37:11;;;;;;;17.20;9.30;;;;;;;1.41;72.13;94968.47;5048696;28;20057;-46
2022/01/30 09:39:38;;;;;;;9.90;6.22;;;;;;;1.52;69.43;94960.38;5045202;28;20041;-47
2022/01/30 09:42:06;;;;;;;9.23;5.10;;;;;;;1.59;69.58;94956.16;5045369;28;20195;-47
2022/01/30 09:44:41;;;;;;;6.55;2.63;;;;;;;1.61;66.06;94946.50;5049867;28;20518;-46
2022/01/30 09:47:12;;;;;;;14.70;5.05;;;;;;;1.65;60.62;94934.91;5046867;28;20430;-48
2022/01/30 09:49:44;;;;;;;12.95;4.85;;;;;;;1.80;61.07;94936.72;5043684;28;20047;-47
2022/01/30 09:52:11;;;;;;;7.50;4.25;;;;;;;1.91;59.37;94908.06;5042380;28;20120;-51
2022/01/30 09:54:38;;;;;;;7.90;2.60;;;;;;;1.98;55.67;94898.69;5045282;28;20041;-50
2022/01/30 09:57:05;;;;;;;9.55;3.65;;;;;;;2.07;56.97;94902.78;5044804;28;20048;-46
2022/01/30 09:59:32;;;;;;;8.50;4.30;;;;;;;2.23;56.26;94918.97;5043694;28;20037;-46
2022/01/30 10:02:03;;;;;;;6.72;2.97;;;;;;;2.28;53.69;94903.81;5051200;28;20523;-47
2022/01/30 10:04:30;;;;;;;7.13;3.03;;;;;;;2.30;53.88;94907.00;5045055;28;20040;-46
2022/01/30 10:07:14;;;;;;;7.28;2.97;;;;;;;2.46;55.75;94896.53;5049058;28;20506;-46
2022/01/30 10:09:47;;;;;;;4.85;3.05;;;;;;;2.62;52.55;94879.34;5048072;28;20140;-46
2022/01/30 10:12:16;;;;;;;5.20;2.72;;;;;;;2.66;50.68;94885.72;5044295;28;20055;-47
2022/01/30 10:14:51;;;;;;;6.50;3.15;;;;;;;2.78;50.79;94884.28;5045106;28;20102;-47
2022/01/30 10:17:47;;;;;;;13.05;4.40;;;;;;;2.87;50.86;94869.53;5045005;28;20426;-48
2022/01/30 10:20:37;;;;;;;6.70;3.35;;;;;;;3.02;50.77;94869.47;5044071;28;20057;-49
2022/01/30 10:23:08;;;;;;;18.05;5.70;;;;;;;3.18;51.39;94858.16;5043506;28;20557;-50
2022/01/30 10:25:38;;;;;;;11.85;4.35;;;;;;;3.41;51.79;94856.19;5044295;28;20415;-50
2022/01/30 10:28:31;;;;;;;14.73;7.57;;;;;;;3.49;48.11;94865.53;5048207;28;20046;-50
2022/01/30 10:31:08;;;;;;;7.82;3.45;;;;;;;3.35;48.74;94869.00;5043914;28;20127;-46
2022/01/30 10:33:41;;;;;;;11.27;5.28;;;;;;;3.29;48.36;94867.16;5046156;28;20111;-47
2022/01/30 10:36:09;;;;;;;7.07;2.70;;;;;;;3.18;47.61;94856.38;5050224;28;20052;-47
2022/01/30 10:38:40;;;;;;;10.50;4.35;;;;;;;3.17;45.32;94831.63;5048517;28;20498;-47
2022/01/30 10:41:15;;;;;;;22.60;8.20;;;;;;;3.31;45.84;94831.72;5043449;28;20049;-46
2022/01/30 10:43:54;;;;;;;11.85;4.90;;;;;;;3.68;45.63;94816.97;5045851;28;20542;-48
2022/01/30 10:46:53;;;;;;;33.92;10.07;;;;;;;3.93;43.08;94815.53;5044703;28;20044;-46
2022/01/30 10:49:22;;;;;;;24.08;7.50;;;;;;;3.86;42.56;94794.09;5026488;28;20459;-48
2022/01/30 10:52:01;;;;;;;7.43;3.78;;;;;;;3.83;42.86;94805.59;5045762;28;20072;-46
2022/01/30 10:54:32;;;;;;;13.15;5.25;;;;;;;4.00;44.66;94789.81;5045042;28;20044;-48
2022/01/30 10:57:07;;;;;;;6.55;3.42;;;;;;;4.07;44.58;94794.97;5047535;28;20782;-45
2022/01/30 10:59:42;;;;;;;8.52;4.45;;;;;;;4.05;45.45;94786.66;5047243;28;20041;-45
2022/01/30 11:02:11;;;;;;;;;;;;;;;4.04;44.94;94798.75;5048889;28;20045;-46
2022/01/30 11:04:39;;;;;;;6.88;3.95;;;;;;;4.27;46.48;94795.88;5044188;28;19924;-46
2022/01/30 11:07:07;;;;;;;6.90;3.58;;;;;;;4.39;46.57;94788.38;5045472;28;20056;-45
2022/01/30 11:09:48;;;;;;;11.73;5.90;;;;;;;4.58;44.93;94792.03;5044827;28;20044;-45
2022/01/30 11:12:16;;;;;;;5.55;2.90;;;;;;;4.56;44.71;94773.38;5043639;28;20044;-46
2022/01/30 11:17:18;;;;;;;5.18;2.70;;;;;;;4.54;44.35;94747.75;5043388;28;20975;-47
2022/01/30 11:19:48;;;;;;;4.53;2.22;;;;;;;4.97;43.92;94764.72;5049835;28;20041;-48
2022/01/30 11:22:18;;;;;;;8.85;3.70;;;;;;;5.10;43.47;94764.72;5052824;28;20044;-47
2022/01/30 11:24:53;;;;;;;35.33;10.13;;;;;;;5.21;45.08;94770.28;5046942;28;20573;-50
2022/01/30 11:27:22;;;;;;;12.65;3.63;;;;;;;5.37;42.07;94764.72;5052496;28;20041;-46
2022/01/30 11:29:51;;;;;;;25.38;9.75;;;;;;;5.39;43.24;94780.81;5047895;28;20047;-50
2022/01/30 11:32:23;;;;;;;14.90;4.57;;;;;;;5.65;41.63;94776.59;5054424;28;20437;-47
2022/01/30 11:34:53;;;;;;;28.48;8.70;;;;;;;5.88;40.03;94766.59;5048317;28;20049;-47
2022/01/30 11:37:32;;;;;;;12.70;5.95;;;;;;;6.05;41.23;94761.84;5046444;28;20128;-46
2022/01/30 11:40:09;;;;;;;11.85;5.47;;;;;;;5.90;41.03;94767.19;5044967;28;20124;-46
2022/01/30 11:42:40;;;;;;;15.07;4.53;;;;;;;5.63;39.36;94763.09;5045391;28;20041;-49
2022/01/30 11:45:06;;;;;;;11.40;4.90;;;;;;;5.77;40.58;94756.91;5046503;28;20132;-48
2022/01/30 11:48:00;;;;;;;35.95;8.52;;;;;;;5.90;40.43;94754.28;5047013;28;20063;-50
2022/01/30 11:50:33;;;;;;;7.57;3.40;;;;;;;5.92;39.57;94747.13;5047386;28;20037;-48
2022/01/30 11:53:08;;;;;;;11.85;3.53;;;;;;;5.96;40.06;94731.22;5046906;28;20041;-51
2022/01/30 11:55:38;;;;;;;6.97;3.15;;;;;;;6.26;39.93;94729.72;5046929;28;20430;-46
2022/01/30 11:58:05;;;;;;;8.68;4.32;;;;;;;6.27;40.21;94723.56;5047188;28;20049;-47
2022/01/30 12:00:47;;;;;;;17.27;6.53;;;;;;;6.36;40.49;94720.75;5050798;28;20044;-50
2022/01/30 12:03:21;;;;;;;7.95;3.17;;;;;;;6.52;39.81;94707.31;5047687;28;20044;-47
2022/01/30 12:05:47;;;;;;;11.15;5.40;;;;;;;6.73;40.13;94700.19;5044123;28;20048;-46
2022/01/30 12:08:44;;;;;;;12.93;4.65;;;;;;;6.70;40.58;94697.03;5047220;28;20506;-47
2022/01/30 12:11:47;;;;;;;14.93;5.03;;;;;;;6.45;39.96;94715.09;5040480;28;20061;-49
2022/01/30 12:14:20;;;;;;;21.90;9.05;;;;;;;6.29;40.88;94716.38;5043896;28;20041;-49
2022/01/30 12:16:57;;;;;;;8.20;2.58;;;;;;;6.30;41.05;94723.16;5045261;28;20041;-47
2022/01/30 12:19:44;;;;;;;22.67;7.03;;;;;;;6.21;41.41;94714.03;5047534;28;20467;-47
2022/01/30 12:22:17;;;;;;;24.90;7.00;;;;;;;6.05;42.28;94709.31;5052428;28;20052;-48
2022/01/30 12:24:48;;;;;;;15.13;4.45;;;;;;;6.19;42.00;94700.50;5045353;28;20136;-49
2022/01/30 12:27:16;;;;;;;29.63;10.30;;;;;;;6.25;43.34;94699.69;5044424;28;20053;-49
2022/01/30 12:29:49;;;;;;;36.30;10.68;;;;;;;6.26;43.64;94690.91;5044471;28;20467;-48
2022/01/30 12:32:22;;;;;;;31.38;10.88;;;;;;;6.22;43.70;94684.56;5045446;28;20045;-46
2022/01/30 12:35:01;;;;;;;16.52;6.70;;;;;;;6.01;43.61;94687.47;5047676;28;20051;-48
2022/01/30 12:37:30;;;;;;;6.18;2.22;;;;;;;5.79;43.44;94674.78;5046844;28;20041;-48
2022/01/30 12:40:00;;;;;;;5.25;2.55;;;;;;;5.64;43.53;94663.91;5043370;28;20137;-48
2022/01/30 12:42:32;;;;;;;5.85;2.42;;;;;;;5.65;44.70;94642.25;5045482;28;20052;-47
2022/01/30 12:45:01;;;;;;;5.80;2.95;;;;;;;5.79;44.35;94637.81;5043710;28;20037;-49
2022/01/30 12:47:28;;;;;;;11.52;4.55;;;;;;;5.89;44.12;94633.78;5044306;28;20506;-46
2022/01/30 12:49:59;;;;;;;15.70;4.72;;;;;;;6.30;43.62;94629.22;5046335;28;20110;-46
2022/01/30 12:54:58;;;;;;;9.60;3.47;;;;;;;6.65;41.12;94652.88;5044788;28;20041;-47